Time;durP1;ratioP1;P1;durP2;ratioP2;P2;SDS_P1;SDS_P2;PMS_P1;PMS_P2;Temp;Humidity;BMP_temperature;BMP_pressure;BME280_temperature;BME280_humidity;BME280_pressure;Samples;Min_cycle;Max_cycle;Signal;HPM_P1;HPM_P2
2021/05/06 00:33:52;;;;;;;2.07;1.80;;;8.10;99.90;;;;;;5048544;28;20308;-54
2021/05/06 00:36:18;;;;;;;2.10;1.17;;;8.10;99.90;;;;;;5044476;28;20276;-53
2021/05/06 00:38:48;;;;;;;1.73;1.33;;;8.10;99.90;;;;;;5044463;28;20196;-53
2021/05/06 00:57:03;;;;;;;2.20;1.63;;;8.00;99.90;;;;;;5048228;28;20188;-54
2021/05/06 01:10:11;;;;;;;1.60;1.50;;;7.90;99.90;;;;;;5052114;28;20816;-54
2021/05/06 01:12:39;;;;;;;1.65;1.55;;;8.10;99.90;;;;;;5058094;28;20202;-54
2021/05/06 01:15:05;;;;;;;2.45;1.80;;;8.10;99.90;;;;;;5046617;28;20181;-53
2021/05/06 01:17:30;;;;;;;2.17;2.00;;;7.90;99.90;;;;;;5050353;28;20656;-53
2021/05/06 01:19:56;;;;;;;1.70;1.60;;;7.90;99.90;;;;;;5046826;28;20207;-54
2021/05/06 01:22:22;;;;;;;1.50;1.40;;;7.90;99.90;;;;;;5046803;28;20340;-53
2021/05/06 01:24:54;;;;;;;5.03;1.93;;;8.00;99.90;;;;;;5049311;28;20202;-54
2021/05/06 01:27:25;;;;;;;1.73;1.63;;;8.20;99.90;;;;;;5046900;28;20563;-53
2021/05/06 01:30:18;;;;;;;1.67;1.58;;;8.10;99.90;;;;;;5048515;28;20185;-53
2021/05/06 01:32:46;;;;;;;3.20;2.10;;;8.00;99.90;;;;;;5051125;28;20227;-54
2021/05/06 01:35:18;;;;;;;2.15;1.95;;;8.10;99.90;;;;;;5044932;28;20189;-53
2021/05/06 01:42:45;;;;;;;3.10;1.70;;;7.90;99.90;;;;;;5051071;28;20229;-53
2021/05/06 01:48:07;;;;;;;1.85;1.60;;;8.10;99.90;;;;;;5050779;28;20686;-54
2021/05/06 01:51:01;;;;;;;2.45;1.92;;;8.30;99.90;;;;;;5046107;28;20611;-54
2021/05/06 02:01:12;;;;;;;1.63;1.47;;;8.10;99.90;;;;;;5050272;28;20237;-54
2021/05/06 02:03:38;;;;;;;1.97;1.80;;;8.30;99.90;;;;;;5048764;28;20748;-53
2021/05/06 02:06:04;;;;;;;2.30;1.80;;;8.20;99.90;;;;;;5046829;28;20213;-53
2021/05/06 02:08:30;;;;;;;2.42;1.80;;;8.20;99.90;;;;;;5048796;28;20645;-54
2021/05/06 02:10:58;;;;;;;2.80;2.20;;;8.20;99.90;;;;;;5047952;28;20671;-54
2021/05/06 02:13:24;;;;;;;1.83;1.70;;;8.40;99.90;;;;;;5047545;28;20193;-54
2021/05/06 02:16:16;;;;;;;2.15;1.50;;;8.30;99.60;;;;;;5045382;28;20225;-54
2021/05/06 02:18:38;;;;;;;2.33;1.83;;;8.40;99.80;;;;;;5047519;28;20190;-54
2021/05/06 02:21:04;;;;;;;2.20;1.67;;;8.30;99.60;;;;;;5041099;28;20324;-54
2021/05/06 02:23:30;;;;;;;2.20;2.00;;;8.30;99.90;;;;;;5045224;28;20708;-54
2021/05/06 02:25:56;;;;;;;2.10;2.00;;;8.20;99.50;;;;;;5045068;28;20216;-54
2021/05/06 02:28:21;;;;;;;2.42;1.83;;;8.20;99.40;;;;;;5048542;28;20178;-54
2021/05/06 02:30:47;;;;;;;2.17;1.83;;;8.40;99.40;;;;;;5048338;28;20300;-54
2021/05/06 02:33:13;;;;;;;2.90;2.00;;;8.20;98.80;;;;;;5046819;28;20535;-53
2021/05/06 02:35:39;;;;;;;2.10;1.93;;;8.40;98.80;;;;;;5048390;28;20186;-53
2021/05/06 02:38:06;;;;;;;2.40;1.80;;;8.30;98.80;;;;;;5047599;28;20185;-54
2021/05/06 02:40:32;;;;;;;1.70;1.60;;;8.60;99.10;;;;;;5044721;28;20191;-54
2021/05/06 02:42:57;;;;;;;2.50;2.30;;;8.50;99.20;;;;;;5046738;28;20234;-54
2021/05/06 02:45:23;;;;;;;2.60;2.03;;;8.40;99.30;;;;;;5047115;28;20461;-54
2021/05/06 02:47:49;;;;;;;2.10;1.63;;;8.40;99.30;;;;;;5048376;28;20571;-54
2021/05/06 02:50:16;;;;;;;1.97;1.70;;;8.30;99.10;;;;;;5048047;28;20463;-54
2021/05/06 02:53:18;;;;;;;2.28;2.08;;;8.30;99.30;;;;;;5045448;28;20986;-53
2021/05/06 02:58:05;;;;;;;2.03;1.83;;;8.40;99.80;;;;;;5049392;28;20272;-53
2021/05/06 03:03:15;;;;;;;4.18;2.10;;;8.50;99.70;;;;;;5049594;28;20271;-54
2021/05/06 03:05:41;;;;;;;3.20;2.30;;;8.40;99.90;;;;;;5048203;28;20680;-54
2021/05/06 03:08:17;;;;;;;4.40;2.10;;;8.40;99.90;;;;;;5048234;28;20177;-54
2021/05/06 03:23:48;;;;;;;6.00;2.90;;;8.40;99.90;;;;;;5049294;28;20308;-54
2021/05/06 03:26:14;;;;;;;2.90;1.80;;;8.40;99.90;;;;;;5047875;28;20210;-54
2021/05/06 03:28:46;;;;;;;3.47;2.55;;;8.00;99.90;;;;;;5047333;28;20186;-53
2021/05/06 03:31:35;;;;;;;2.40;2.20;;;8.10;99.90;;;;;;5047846;28;20330;-54
2021/05/06 03:42:14;;;;;;;2.45;2.25;;;7.40;99.90;;;;;;5049267;28;20539;-53
2021/05/06 04:37:55;;;;;;;2.85;2.40;;;7.20;99.90;;;;;;5051352;28;20194;-57
2021/05/06 05:04:36;;;;;;;2.95;2.70;;;7.30;99.90;;;;;;5041145;28;20558;-55
2021/05/06 05:09:53;;;;;;;5.63;3.85;;;7.50;99.90;;;;;;5051404;28;20192;-55
2021/05/06 05:17:41;;;;;;;3.45;2.92;;;8.00;99.90;;;;;;5051230;28;20181;-55
2021/05/06 05:27:47;;;;;;;2.80;2.60;;;7.90;99.90;;;;;;5050089;28;20182;-54
2021/05/06 05:30:13;;;;;;;3.30;3.00;;;7.80;99.90;;;;;;5047359;28;20636;-54
2021/05/06 05:32:38;;;;;;;3.42;3.13;;;8.20;99.90;;;;;;5046660;28;20298;-53
2021/05/06 05:35:10;;;;;;;3.00;2.80;;;8.00;99.90;;;;;;5046743;28;20379;-59
2021/05/06 05:37:40;;;;;;;3.55;3.03;;;7.90;99.90;;;;;;5049184;28;20661;-58
2021/05/06 05:56:20;;;;;;;4.40;3.42;;;8.30;99.90;;;;;;5050629;28;20193;-55
2021/05/06 05:58:46;;;;;;;4.68;3.10;;;8.40;99.90;;;;;;5048962;28;20218;-55
2021/05/06 06:01:12;;;;;;;3.20;3.00;;;8.40;99.90;;;;;;5048509;28;20213;-54
2021/05/06 06:03:37;;;;;;;3.83;3.37;;;8.30;99.90;;;;;;5048399;28;20202;-54
2021/05/06 06:06:03;;;;;;;5.43;3.00;;;8.50;99.90;;;;;;5044998;28;20324;-55
2021/05/06 06:08:31;;;;;;;3.10;2.73;;;8.30;99.90;;;;;;5047281;28;20189;-53
2021/05/06 06:10:56;;;;;;;5.03;3.75;;;8.40;99.90;;;;;;5048784;28;20432;-54
2021/05/06 06:13:23;;;;;;;3.23;2.77;;;8.40;99.90;;;;;;5047564;28;20202;-54
2021/05/06 06:18:53;;;;;;;4.18;2.55;;;8.70;99.90;;;;;;5049871;28;20193;-55
2021/05/06 06:23:45;;;;;;;4.80;3.17;;;8.30;99.90;;;;;;5047670;28;20280;-54
2021/05/06 06:26:10;;;;;;;2.67;2.47;;;8.30;99.90;;;;;;5044923;28;20821;-53
2021/05/06 06:28:41;;;;;;;4.03;3.60;;;8.50;99.90;;;;;;5042748;28;20182;-57
2021/05/06 06:33:45;;;;;;;3.97;2.47;;;8.60;99.90;;;;;;5046212;28;20225;-58
2021/05/06 06:36:11;;;;;;;5.00;2.70;;;8.70;99.90;;;;;;5049327;28;20656;-57
2021/05/06 06:38:37;;;;;;;3.17;2.40;;;8.80;99.90;;;;;;5049459;28;20848;-56
2021/05/06 06:41:04;;;;;;;3.17;2.30;;;8.70;99.90;;;;;;5048980;28;20216;-57
2021/05/06 06:43:31;;;;;;;3.97;2.17;;;8.70;99.90;;;;;;5049335;28;20217;-55
2021/05/06 06:46:04;;;;;;;4.72;2.63;;;8.70;99.90;;;;;;5047707;28;20212;-54
2021/05/06 06:48:30;;;;;;;6.05;3.30;;;8.80;99.90;;;;;;5046078;28;20181;-52
2021/05/06 06:50:56;;;;;;;4.45;2.85;;;9.00;99.90;;;;;;5047251;28;20209;-56
2021/05/06 06:53:21;;;;;;;3.63;2.53;;;8.60;99.90;;;;;;5048517;28;20289;-53
2021/05/06 06:55:48;;;;;;;2.53;2.30;;;9.00;99.90;;;;;;5044479;28;20520;-56
2021/05/06 06:58:16;;;;;;;5.07;2.50;;;9.00;99.90;;;;;;5043610;28;20197;-52
2021/05/06 07:00:45;;;;;;;4.88;2.30;;;9.30;99.90;;;;;;5047572;28;20431;-57
2021/05/06 07:03:12;;;;;;;2.33;2.13;;;9.20;99.90;;;;;;5048083;28;20212;-55
2021/05/06 07:05:38;;;;;;;2.25;2.00;;;9.70;99.90;;;;;;5048776;28;20209;-55
2021/05/06 07:08:18;;;;;;;3.20;1.98;;;9.70;99.90;;;;;;5047636;28;20190;-55
2021/05/06 07:10:46;;;;;;;2.55;2.35;;;9.70;99.90;;;;;;5048130;28;20181;-55
2021/05/06 07:13:13;;;;;;;2.80;2.40;;;9.60;99.90;;;;;;5043662;28;20217;-55
2021/05/06 07:15:39;;;;;;;2.80;2.30;;;9.70;99.90;;;;;;5043968;28;20277;-55
2021/05/06 07:18:08;;;;;;;3.85;2.67;;;9.80;99.90;;;;;;5044423;28;20220;-57
2021/05/06 07:20:34;;;;;;;3.97;2.67;;;9.60;99.90;;;;;;5035845;28;20732;-55
2021/05/06 07:22:59;;;;;;;5.00;2.80;;;9.70;99.90;;;;;;5045693;28;20367;-55
2021/05/06 07:25:25;;;;;;;2.73;2.10;;;9.80;99.90;;;;;;5042952;28;20995;-56
2021/05/06 07:27:51;;;;;;;6.93;3.63;;;10.00;99.90;;;;;;5046797;28;20328;-56
2021/05/06 07:30:17;;;;;;;2.90;2.60;;;9.90;99.90;;;;;;5047067;28;20189;-56
2021/05/06 07:32:44;;;;;;;2.83;2.20;;;10.10;99.90;;;;;;5046796;28;20213;-56
2021/05/06 07:35:11;;;;;;;3.72;2.20;;;9.80;99.90;;;;;;5046586;28;20186;-55
2021/05/06 07:37:36;;;;;;;3.00;2.15;;;10.00;99.90;;;;;;5047599;28;20633;-55
2021/05/06 07:40:03;;;;;;;2.33;2.13;;;10.00;99.90;;;;;;5047015;28;20193;-55
2021/05/06 07:42:29;;;;;;;4.40;2.42;;;10.00;99.90;;;;;;5047097;28;20471;-55
2021/05/06 07:44:54;;;;;;;2.60;1.90;;;10.20;99.90;;;;;;5046805;28;20641;-55
2021/05/06 07:47:20;;;;;;;2.50;2.20;;;10.40;99.90;;;;;;5043920;28;20179;-54
2021/05/06 07:49:49;;;;;;;2.93;2.17;;;10.60;98.70;;;;;;5041966;28;20186;-54
2021/05/06 07:52:18;;;;;;;2.35;2.10;;;10.90;98.00;;;;;;5046786;28;20178;-53
2021/05/06 07:54:44;;;;;;;2.30;2.10;;;10.80;97.70;;;;;;5036685;28;20228;-54
2021/05/06 07:57:09;;;;;;;6.00;2.90;;;11.00;97.40;;;;;;5045630;28;20598;-54
2021/05/06 07:59:35;;;;;;;6.10;2.73;;;11.10;97.40;;;;;;5044466;28;20447;-55
2021/05/06 08:02:02;;;;;;;4.00;3.30;;;11.60;98.30;;;;;;5047947;28;20555;-54
2021/05/06 08:04:30;;;;;;;16.10;9.07;;;11.50;97.80;;;;;;5045779;28;20465;-53
2021/05/06 08:06:56;;;;;;;5.13;2.95;;;11.70;97.10;;;;;;5047288;28;20328;-53
2021/05/06 08:09:21;;;;;;;3.23;2.87;;;11.80;96.80;;;;;;5048582;28;20182;-53
2021/05/06 08:11:49;;;;;;;2.50;2.30;;;11.70;96.10;;;;;;5046926;28;20268;-53
2021/05/06 08:14:15;;;;;;;4.40;2.67;;;11.80;96.00;;;;;;5050677;28;20194;-54
2021/05/06 08:16:40;;;;;;;3.53;2.63;;;11.60;95.60;;;;;;5050763;28;20182;-54
2021/05/06 08:19:06;;;;;;;3.37;2.23;;;11.70;95.50;;;;;;5059186;28;20194;-54
2021/05/06 08:21:32;;;;;;;3.20;2.67;;;11.80;95.40;;;;;;5055643;28;20208;-52
2021/05/06 08:23:57;;;;;;;5.07;3.00;;;11.70;95.60;;;;;;5043378;28;20644;-53
2021/05/06 08:26:25;;;;;;;3.03;2.40;;;11.40;95.10;;;;;;5051214;28;20205;-54
2021/05/06 08:28:52;;;;;;;3.92;2.70;;;11.50;95.20;;;;;;5047971;28;20492;-56
2021/05/06 08:31:18;;;;;;;7.47;4.75;;;11.50;95.30;;;;;;5047020;28;20688;-55
2021/05/06 08:33:44;;;;;;;4.97;4.10;;;11.70;95.10;;;;;;5051316;28;20216;-53
2021/05/06 08:36:10;;;;;;;3.43;3.13;;;11.60;95.30;;;;;;5050928;28;20475;-56
2021/05/06 08:38:36;;;;;;;4.70;3.07;;;11.60;95.20;;;;;;5050556;28;20822;-54
2021/05/06 08:41:02;;;;;;;3.60;2.43;;;11.40;94.90;;;;;;5050859;28;20477;-54
2021/05/06 08:43:31;;;;;;;4.70;2.40;;;11.40;95.10;;;;;;5048626;28;20210;-54
2021/05/06 08:45:58;;;;;;;3.85;2.45;;;11.10;95.50;;;;;;5050398;28;20491;-55
2021/05/06 08:48:24;;;;;;;5.30;2.85;;;11.30;95.20;;;;;;5038780;28;20630;-56
2021/05/06 08:50:53;;;;;;;3.93;1.90;;;11.30;95.30;;;;;;5044515;28;20201;-56
2021/05/06 08:53:21;;;;;;;2.35;2.15;;;11.40;95.50;;;;;;5046954;28;20958;-51
2021/05/06 08:55:46;;;;;;;4.43;2.22;;;11.70;95.20;;;;;;5043116;28;20191;-53
2021/05/06 08:58:12;;;;;;;4.70;2.80;;;11.80;95.00;;;;;;5050557;28;20194;-53
2021/05/06 09:00:38;;;;;;;4.60;2.70;;;11.60;95.00;;;;;;5051473;28;20202;-54
2021/05/06 09:03:05;;;;;;;4.33;2.40;;;11.70;94.70;;;;;;5049396;28;20445;-52
2021/05/06 09:05:31;;;;;;;3.58;2.17;;;11.60;95.00;;;;;;5049998;28;20225;-54
2021/05/06 09:07:56;;;;;;;5.07;3.10;;;11.90;94.60;;;;;;5049599;28;20181;-55
2021/05/06 09:10:34;;;;;;;4.73;2.90;;;11.50;94.70;;;;;;5050243;28;20190;-54
2021/05/06 09:13:00;;;;;;;4.38;2.60;;;11.50;95.40;;;;;;5046353;28;20206;-54
2021/05/06 09:15:26;;;;;;;2.70;2.07;;;11.60;94.90;;;;;;5037851;28;20775;-54
2021/05/06 09:17:53;;;;;;;5.97;2.58;;;11.50;95.10;;;;;;5050485;28;20842;-54
2021/05/06 09:20:25;;;;;;;7.78;2.80;;;11.60;95.30;;;;;;5046314;28;20281;-54
2021/05/06 09:22:57;;;;;;;3.50;2.38;;;11.80;95.30;;;;;;5046929;28;20297;-54
2021/05/06 09:25:35;;;;;;;5.93;3.00;;;11.70;94.60;;;;;;5049747;28;20210;-55
2021/05/06 09:28:19;;;;;;;5.72;3.50;;;11.70;94.80;;;;;;5050194;28;20205;-55
2021/05/06 09:30:50;;;;;;;6.60;2.80;;;11.90;95.80;;;;;;5045143;28;20194;-54
2021/05/06 09:33:25;;;;;;;7.22;2.60;;;11.80;95.70;;;;;;5046667;28;20255;-55
2021/05/06 09:35:50;;;;;;;6.65;2.75;;;11.70;95.60;;;;;;5049341;28;20604;-55
2021/05/06 09:38:32;;;;;;;4.07;2.63;;;11.50;95.00;;;;;;5048652;28;20280;-54
2021/05/06 09:41:03;;;;;;;5.45;3.65;;;11.30;95.40;;;;;;5037912;28;20253;-55
2021/05/06 09:43:40;;;;;;;5.70;2.50;;;11.10;96.30;;;;;;5049320;28;20731;-54
2021/05/06 09:46:42;;;;;;;8.35;4.20;;;11.20;96.20;;;;;;5042708;28;20209;-55
2021/05/06 09:49:16;;;;;;;7.05;3.70;;;10.90;96.40;;;;;;5043072;28;20181;-53
2021/05/06 09:51:45;;;;;;;4.20;2.45;;;11.20;96.90;;;;;;5045524;28;20209;-54
2021/05/06 09:54:17;;;;;;;4.43;2.40;;;11.30;96.00;;;;;;5041970;28;20204;-55
2021/05/06 09:56:44;;;;;;;7.15;2.95;;;11.60;95.90;;;;;;5049169;28;20277;-53
2021/05/06 09:59:10;;;;;;;3.80;2.45;;;11.70;95.50;;;;;;5048693;28;20193;-54
2021/05/06 10:01:39;;;;;;;5.43;2.60;;;11.80;95.40;;;;;;5048366;28;20201;-55
2021/05/06 10:04:31;;;;;;;3.95;2.40;;;11.70;95.60;;;;;;5049818;28;20685;-56
2021/05/06 10:07:15;;;;;;;6.72;2.80;;;11.70;95.60;;;;;;5045549;28;20191;-56
2021/05/06 10:09:56;;;;;;;8.38;2.70;;;11.70;96.00;;;;;;5048107;28;20182;-53
2021/05/06 10:12:33;;;;;;;3.00;2.45;;;11.40;96.30;;;;;;5048828;28;20653;-54
2021/05/06 10:14:59;;;;;;;5.65;2.33;;;11.90;96.30;;;;;;5047447;28;20225;-51
2021/05/06 10:17:27;;;;;;;3.50;2.50;;;11.90;96.10;;;;;;5047270;28;20261;-53
2021/05/06 10:19:53;;;;;;;2.95;1.85;;;11.90;96.00;;;;;;5049838;28;20591;-53
2021/05/06 10:22:26;;;;;;;3.25;2.00;;;11.90;96.30;;;;;;5048404;28;20194;-54
2021/05/06 10:24:52;;;;;;;4.05;2.15;;;11.90;96.70;;;;;;5048193;28;20211;-53
2021/05/06 10:27:23;;;;;;;2.78;2.13;;;11.90;96.80;;;;;;5045903;28;20217;-54
2021/05/06 10:29:56;;;;;;;3.33;1.90;;;11.10;97.10;;;;;;5044800;28;20267;-52
2021/05/06 10:32:26;;;;;;;2.40;2.20;;;11.70;98.00;;;;;;5047240;28;20198;-52
2021/05/06 10:34:55;;;;;;;2.53;1.90;;;11.50;98.20;;;;;;5031801;28;20195;-53
2021/05/06 10:37:35;;;;;;;2.35;1.88;;;11.60;98.20;;;;;;5047970;28;20209;-50
2021/05/06 10:40:02;;;;;;;2.38;1.90;;;11.50;98.40;;;;;;5047478;28;20240;-54
2021/05/06 10:42:30;;;;;;;3.33;2.03;;;11.50;98.80;;;;;;5040186;28;20229;-51
2021/05/06 10:45:01;;;;;;;4.72;2.30;;;11.50;99.20;;;;;;5047299;28;20592;-55
2021/05/06 10:47:46;;;;;;;3.00;2.30;;;11.20;99.00;;;;;;5045835;28;20633;-53
2021/05/06 10:50:14;;;;;;;3.20;2.00;;;11.30;99.80;;;;;;5038103;28;20550;-53
2021/05/06 10:52:42;;;;;;;2.85;2.40;;;11.30;99.90;;;;;;5048037;28;20683;-53
2021/05/06 10:55:10;;;;;;;2.88;2.10;;;11.40;99.70;;;;;;5047517;28;20704;-52
2021/05/06 10:57:37;;;;;;;5.13;2.00;;;11.50;99.20;;;;;;5047735;28;20221;-53
2021/05/06 11:00:22;;;;;;;4.57;4.03;;;11.60;99.30;;;;;;5042312;28;20201;-53
2021/05/06 11:02:50;;;;;;;4.28;2.85;;;11.40;99.70;;;;;;5046927;28;20213;-53
2021/05/06 11:05:23;;;;;;;4.85;3.00;;;11.40;99.30;;;;;;5044885;28;20233;-55
2021/05/06 11:08:04;;;;;;;1.50;1.40;;;11.70;99.90;;;;;;5047803;28;20182;-55
2021/05/06 11:10:31;;;;;;;4.05;2.10;;;11.20;99.70;;;;;;5047734;28;20448;-55
2021/05/06 11:12:58;;;;;;;2.83;1.83;;;11.60;99.90;;;;;;5048629;28;20630;-56
2021/05/06 11:15:30;;;;;;;1.85;1.75;;;11.90;98.70;;;;;;5047881;28;20259;-56
2021/05/06 11:17:57;;;;;;;6.60;3.50;;;11.80;98.50;;;;;;5045225;28;20230;-50
2021/05/06 11:20:28;;;;;;;2.72;2.13;;;12.00;98.10;;;;;;5038268;28;20508;-49
2021/05/06 11:22:59;;;;;;;1.70;1.60;;;11.90;98.70;;;;;;5040113;28;20689;-53
2021/05/06 11:25:31;;;;;;;2.20;2.00;;;12.10;98.20;;;;;;5047191;28;20233;-50
2021/05/06 11:27:58;;;;;;;2.70;1.60;;;11.60;97.70;;;;;;5039189;28;20459;-51
2021/05/06 11:30:36;;;;;;;2.20;1.75;;;12.20;97.30;;;;;;5046949;28;20237;-51
2021/05/06 11:36:01;;;;;;;3.13;1.85;;;12.10;97.00;;;;;;5042182;28;20185;-53
2021/05/06 11:38:39;;;;;;;1.30;1.20;;;12.00;96.60;;;;;;5047434;28;20240;-52
2021/05/06 11:41:19;;;;;;;2.10;1.30;;;12.00;96.40;;;;;;5046874;28;20680;-52
2021/05/06 11:43:46;;;;;;;2.72;1.45;;;11.90;96.30;;;;;;5052297;28;20313;-54
2021/05/06 11:46:25;;;;;;;1.70;1.30;;;12.10;96.50;;;;;;5045994;28;20209;-54
2021/05/06 11:49:03;;;;;;;1.40;1.30;;;12.00;96.40;;;;;;5046013;28;20568;-53
2021/05/06 11:51:44;;;;;;;1.35;1.25;;;11.80;96.30;;;;;;5046884;28;20277;-54
2021/05/06 11:54:12;;;;;;;0.90;0.90;;;11.80;95.70;;;;;;5033846;28;20205;-54
2021/05/06 11:56:58;;;;;;;1.45;0.95;;;12.00;95.60;;;;;;5046694;28;20178;-53
2021/05/06 11:59:30;;;;;;;2.53;1.30;;;11.70;95.20;;;;;;5046839;28;20243;-53
2021/05/06 12:02:03;;;;;;;1.38;1.00;;;11.90;95.10;;;;;;5044750;28;20193;-55
2021/05/06 12:04:33;;;;;;;1.70;1.20;;;11.70;94.80;;;;;;5046000;28;20249;-56
2021/05/06 12:07:10;;;;;;;1.92;1.35;;;12.00;95.20;;;;;;5046985;28;20596;-55
2021/05/06 12:09:36;;;;;;;1.10;1.00;;;12.00;95.30;;;;;;5048230;28;20292;-54
2021/05/06 12:12:01;;;;;;;1.60;1.50;;;11.90;94.90;;;;;;5046130;28;20650;-54
2021/05/06 12:14:33;;;;;;;1.30;1.20;;;12.10;95.20;;;;;;5047292;28;20225;-54
2021/05/06 12:16:59;;;;;;;2.03;1.40;;;11.60;95.00;;;;;;5047891;28;20190;-52
2021/05/06 12:19:25;;;;;;;1.85;1.63;;;11.80;95.30;;;;;;5048837;28;20188;-54
2021/05/06 12:21:57;;;;;;;1.65;1.55;;;12.00;95.30;;;;;;5044957;28;20568;-55
2021/05/06 12:24:29;;;;;;;1.27;1.10;;;11.90;95.00;;;;;;5047133;28;20216;-56
2021/05/06 12:26:55;;;;;;;3.38;1.10;;;11.80;95.00;;;;;;5062824;28;20206;-56
2021/05/06 12:29:23;;;;;;;2.23;1.20;;;11.90;94.90;;;;;;5047518;28;20538;-57
2021/05/06 12:31:50;;;;;;;1.10;1.00;;;11.90;95.20;;;;;;5044979;28;20563;-52
2021/05/06 12:34:19;;;;;;;1.70;1.50;;;12.30;95.10;;;;;;5047066;28;20234;-52
2021/05/06 12:36:55;;;;;;;1.63;1.27;;;12.30;95.10;;;;;;5045385;28;20214;-52
2021/05/06 12:39:21;;;;;;;1.42;1.00;;;12.20;95.50;;;;;;5041904;28;20194;-51
2021/05/06 12:41:55;;;;;;;1.85;1.38;;;12.30;95.80;;;;;;5043749;28;20186;-51
2021/05/06 12:44:47;;;;;;;1.90;1.27;;;12.10;98.00;;;;;;5045543;28;20217;-53
2021/05/06 12:47:29;;;;;;;1.95;1.85;;;11.70;98.40;;;;;;5044967;28;20549;-53
2021/05/06 12:50:06;;;;;;;1.50;1.40;;;11.80;99.70;;;;;;5046538;28;20210;-54
2021/05/06 12:52:33;;;;;;;2.83;1.45;;;12.00;99.90;;;;;;5046681;28;20271;-50
2021/05/06 12:55:02;;;;;;;2.25;1.60;;;11.90;99.90;;;;;;5047100;28;20604;-52
2021/05/06 12:57:28;;;;;;;1.40;1.30;;;11.60;99.90;;;;;;5050508;28;20600;-51
2021/05/06 12:59:53;;;;;;;1.52;1.42;;;11.60;99.90;;;;;;5050132;28;20281;-52
2021/05/06 13:02:19;;;;;;;1.57;1.10;;;11.90;99.90;;;;;;5051107;28;20281;-55
2021/05/06 13:04:46;;;;;;;1.38;1.00;;;11.80;99.90;;;;;;5050881;28;20197;-56
2021/05/06 13:07:13;;;;;;;2.22;1.85;;;11.90;99.90;;;;;;5045192;28;20556;-54
2021/05/06 13:09:45;;;;;;;1.63;1.27;;;11.80;99.90;;;;;;5051151;28;20177;-53
2021/05/06 13:12:15;;;;;;;2.10;1.40;;;11.70;99.90;;;;;;5050569;28;20182;-55
2021/05/06 13:14:53;;;;;;;4.38;2.10;;;11.50;99.90;;;;;;5047924;28;20186;-53
2021/05/06 13:17:37;;;;;;;1.63;1.50;;;11.10;99.90;;;;;;5047200;28;20213;-55
2021/05/06 13:20:17;;;;;;;1.90;1.80;;;11.10;99.90;;;;;;5050379;28;20932;-54
2021/05/06 13:23:10;;;;;;;2.20;2.00;;;10.90;99.90;;;;;;5048080;28;20209;-52
2021/05/06 13:25:52;;;;;;;4.25;2.05;;;10.90;99.90;;;;;;5038134;28;20225;-51
2021/05/06 13:28:28;;;;;;;2.55;2.22;;;10.80;99.90;;;;;;5045126;28;20182;-52
2021/05/06 13:31:11;;;;;;;3.05;2.53;;;10.90;99.90;;;;;;5046545;28;20228;-52
2021/05/06 13:33:38;;;;;;;2.05;1.95;;;10.50;99.90;;;;;;5041677;28;20213;-57
2021/05/06 13:36:05;;;;;;;2.33;2.13;;;10.80;99.90;;;;;;5048044;28;20194;-53
2021/05/06 13:38:55;;;;;;;2.83;2.50;;;10.50;99.90;;;;;;5049260;28;20738;-54
2021/05/06 13:41:39;;;;;;;2.03;1.65;;;10.30;99.90;;;;;;5041886;28;20174;-53
2021/05/06 13:44:06;;;;;;;4.03;3.17;;;10.10;99.90;;;;;;5045021;28;20224;-53
2021/05/06 13:46:34;;;;;;;3.33;2.83;;;10.10;99.90;;;;;;5049782;28;20236;-57
2021/05/06 13:49:00;;;;;;;2.13;1.92;;;10.30;99.90;;;;;;5050105;28;20228;-56
2021/05/06 13:51:27;;;;;;;2.88;2.13;;;10.30;99.90;;;;;;5049624;28;20182;-56
2021/05/06 13:53:54;;;;;;;2.10;2.00;;;10.50;99.90;;;;;;5049616;28;20205;-54
2021/05/06 13:56:24;;;;;;;2.80;2.55;;;10.70;99.90;;;;;;5046902;28;20189;-50
2021/05/06 13:58:50;;;;;;;2.38;2.10;;;10.40;99.90;;;;;;5042343;28;20193;-51
2021/05/06 14:01:18;;;;;;;2.85;2.58;;;10.30;99.90;;;;;;5049324;28;20575;-52
2021/05/06 14:03:43;;;;;;;2.40;2.20;;;10.40;99.90;;;;;;5043208;28;20499;-53
2021/05/06 14:06:09;;;;;;;3.10;2.80;;;10.30;99.90;;;;;;5046684;28;20853;-54
2021/05/06 14:08:36;;;;;;;2.87;2.50;;;10.80;99.90;;;;;;5044830;28;20552;-53
2021/05/06 14:11:02;;;;;;;2.72;2.53;;;10.70;99.90;;;;;;5046771;28;20561;-53
2021/05/06 14:13:29;;;;;;;2.30;2.10;;;11.10;99.90;;;;;;5047497;28;20218;-53
2021/05/06 14:15:54;;;;;;;5.75;3.13;;;10.90;99.90;;;;;;5047734;28;20682;-53
2021/05/06 14:18:20;;;;;;;2.40;2.30;;;11.00;99.90;;;;;;5049752;28;20193;-53
2021/05/06 14:20:47;;;;;;;3.37;1.87;;;11.10;99.90;;;;;;5050198;28;20186;-54
2021/05/06 14:23:16;;;;;;;4.55;3.10;;;11.50;99.90;;;;;;5048910;28;20556;-53
2021/05/06 14:25:42;;;;;;;2.70;2.00;;;11.50;99.90;;;;;;5048658;28;20681;-53
2021/05/06 14:28:08;;;;;;;2.30;2.00;;;11.40;99.90;;;;;;5049055;28;20194;-53
2021/05/06 14:30:34;;;;;;;2.42;2.22;;;11.70;99.90;;;;;;5049529;28;20913;-52
2021/05/06 14:33:00;;;;;;;5.85;2.20;;;11.50;99.90;;;;;;5048428;28;20198;-52
2021/05/06 14:35:26;;;;;;;2.42;2.03;;;11.30;99.90;;;;;;5043908;28;20194;-54
2021/05/06 14:37:51;;;;;;;3.50;2.10;;;11.10;99.90;;;;;;5048294;28;20727;-53
2021/05/06 14:40:17;;;;;;;2.10;1.90;;;11.10;99.90;;;;;;5047960;28;20236;-53
2021/05/06 14:42:43;;;;;;;2.63;2.42;;;10.90;99.90;;;;;;5048315;28;20511;-54
2021/05/06 14:45:10;;;;;;;2.40;2.00;;;11.00;99.90;;;;;;5044777;28;20217;-53
2021/05/06 14:47:40;;;;;;;2.78;1.45;;;10.80;99.90;;;;;;5045409;28;20453;-53
2021/05/06 14:50:09;;;;;;;2.30;2.05;;;10.60;99.90;;;;;;5048481;28;20185;-54
2021/05/06 14:52:34;;;;;;;2.58;1.25;;;10.80;99.90;;;;;;5046545;28;20684;-52
2021/05/06 14:55:00;;;;;;;1.40;1.30;;;11.10;99.90;;;;;;5039479;28;20239;-54
2021/05/06 14:57:26;;;;;;;1.88;1.55;;;11.20;99.90;;;;;;5047536;28;20194;-53
2021/05/06 14:59:52;;;;;;;1.30;1.13;;;10.90;99.90;;;;;;5047372;28;20206;-53
2021/05/06 15:02:17;;;;;;;1.20;1.10;;;11.00;99.90;;;;;;5041205;28;20641;-53
2021/05/06 15:04:43;;;;;;;1.87;1.30;;;11.20;99.90;;;;;;5046984;28;20635;-54
2021/05/06 15:07:08;;;;;;;1.30;1.17;;;11.00;99.90;;;;;;5046430;28;20194;-54
2021/05/06 15:09:34;;;;;;;1.73;1.20;;;11.00;99.90;;;;;;5047612;28;20601;-54
2021/05/06 15:12:00;;;;;;;1.10;1.00;;;10.90;99.90;;;;;;5047250;28;20191;-54
2021/05/06 15:14:26;;;;;;;1.97;1.30;;;10.90;99.90;;;;;;5047388;28;20213;-54
2021/05/06 15:16:52;;;;;;;1.58;1.30;;;11.00;99.90;;;;;;5044413;28;20178;-52
2021/05/06 15:19:19;;;;;;;1.40;1.30;;;11.10;99.90;;;;;;5039966;28;20196;-53
2021/05/06 15:21:45;;;;;;;3.00;1.77;;;11.20;99.90;;;;;;5047425;28;20190;-54
2021/05/06 15:24:10;;;;;;;2.50;1.70;;;11.20;99.90;;;;;;5047783;28;20485;-54
2021/05/06 15:26:36;;;;;;;1.40;1.30;;;10.80;99.90;;;;;;5047972;28;20209;-51
2021/05/06 15:29:04;;;;;;;2.25;1.48;;;11.00;99.90;;;;;;5044446;28;20419;-52
2021/05/06 15:31:31;;;;;;;2.15;1.92;;;11.00;99.90;;;;;;5046872;28;20209;-55
2021/05/06 15:33:56;;;;;;;4.35;1.63;;;11.10;99.90;;;;;;5047731;28;20238;-53
2021/05/06 15:36:23;;;;;;;1.47;1.17;;;10.90;99.90;;;;;;5052990;28;20217;-53
2021/05/06 15:38:48;;;;;;;2.17;1.73;;;10.80;99.90;;;;;;5047126;28;20285;-52
2021/05/06 15:41:14;;;;;;;1.83;1.50;;;10.90;99.90;;;;;;5055183;28;20547;-49
2021/05/06 15:43:40;;;;;;;1.37;1.27;;;11.00;99.90;;;;;;5046591;28;20300;-49
2021/05/06 15:46:06;;;;;;;1.70;1.38;;;10.90;99.90;;;;;;5047619;28;21652;-53
2021/05/06 15:48:35;;;;;;;1.85;1.30;;;11.00;99.90;;;;;;5057062;28;20277;-52
2021/05/06 15:51:00;;;;;;;2.25;1.40;;;11.00;99.90;;;;;;5046329;28;20182;-52
2021/05/06 15:53:27;;;;;;;2.13;1.93;;;10.90;99.90;;;;;;5046745;28;20212;-52
2021/05/06 15:55:54;;;;;;;3.00;2.70;;;11.10;99.90;;;;;;5043885;28;20204;-53
2021/05/06 15:58:20;;;;;;;1.10;1.00;;;11.10;99.90;;;;;;5057522;28;20185;-53
2021/05/06 16:00:46;;;;;;;1.67;1.40;;;11.00;99.90;;;;;;5046281;28;20736;-53
2021/05/06 16:03:14;;;;;;;3.43;1.50;;;11.10;99.90;;;;;;5046336;28;20228;-52
2021/05/06 16:05:44;;;;;;;1.75;1.50;;;11.10;99.90;;;;;;5045398;28;20205;-52
2021/05/06 16:08:09;;;;;;;1.55;1.33;;;11.20;99.90;;;;;;5046449;28;20730;-52
2021/05/06 16:10:35;;;;;;;2.60;1.50;;;11.10;99.90;;;;;;5046997;28;20179;-53
2021/05/06 16:13:01;;;;;;;3.07;1.50;;;11.20;99.90;;;;;;5044003;28;20211;-53
2021/05/06 16:15:28;;;;;;;2.70;2.17;;;11.50;99.90;;;;;;5047342;28;20191;-52
2021/05/06 16:17:54;;;;;;;3.13;1.92;;;11.40;99.90;;;;;;5045714;28;20194;-52
2021/05/06 16:20:39;;;;;;;2.20;1.57;;;11.40;99.90;;;;;;5039606;28;20637;-52
2021/05/06 16:23:06;;;;;;;1.40;1.30;;;11.40;99.90;;;;;;5046193;28;20792;-52
2021/05/06 16:25:32;;;;;;;1.75;1.65;;;11.50;99.90;;;;;;5034044;28;20214;-52
2021/05/06 16:27:58;;;;;;;1.85;1.60;;;11.50;99.90;;;;;;5040912;28;20561;-53
2021/05/06 16:30:26;;;;;;;1.90;1.73;;;11.60;99.90;;;;;;5045099;28;20189;-53
2021/05/06 16:32:52;;;;;;;1.63;1.40;;;11.60;99.90;;;;;;5049220;28;20705;-53
2021/05/06 16:35:21;;;;;;;1.58;1.30;;;11.70;99.90;;;;;;5050629;28;20604;-52
2021/05/06 16:37:56;;;;;;;2.00;1.52;;;11.90;99.90;;;;;;5050674;28;20542;-52
2021/05/06 16:45:37;;;;;;;1.88;1.70;;;11.60;99.90;;;;;;5051727;28;20206;-53
2021/05/06 16:48:04;;;;;;;2.30;1.90;;;11.30;99.90;;;;;;5064628;28;20186;-53